createdAt,value
2023-08-26T00:00:53.081Z,2.53
2023-08-26T00:03:19.821Z,2.35
2023-08-26T00:05:46.539Z,2.45
2023-08-26T00:08:13.125Z,2.22
2023-08-26T00:10:39.866Z,2.30
2023-08-26T00:13:06.597Z,2.30
2023-08-26T00:15:33.293Z,2.20
2023-08-26T00:18:00.175Z,2.20
2023-08-26T00:20:28.335Z,2.22
2023-08-26T00:22:54.902Z,2.35
2023-08-26T00:25:21.484Z,1.83
2023-08-26T00:27:48.037Z,2.40
2023-08-26T00:30:14.651Z,2.20
2023-08-26T00:32:41.256Z,2.40
2023-08-26T00:35:08.020Z,2.03
2023-08-26T00:37:34.598Z,2.05
2023-08-26T00:40:01.190Z,2.15
2023-08-26T00:42:27.832Z,2.05
2023-08-26T00:44:54.348Z,1.77
2023-08-26T00:47:20.940Z,1.90
2023-08-26T00:49:47.581Z,1.90
2023-08-26T00:52:14.166Z,1.92
2023-08-26T00:54:40.868Z,2.10
2023-08-26T00:57:09.778Z,2.03
2023-08-26T00:59:37.049Z,1.95
2023-08-26T01:02:03.696Z,1.98
2023-08-26T01:04:30.294Z,2.22
2023-08-26T01:06:56.937Z,1.80
2023-08-26T01:09:23.926Z,1.70
2023-08-26T01:11:53.092Z,1.70
2023-08-26T01:14:35.035Z,1.90
2023-08-26T01:17:04.917Z,1.83
2023-08-26T01:19:36.838Z,1.83
2023-08-26T01:22:06.846Z,1.77
2023-08-26T01:24:34.522Z,1.60
2023-08-26T01:27:01.195Z,1.98
2023-08-26T01:29:27.794Z,1.55
2023-08-26T01:32:18.441Z,1.55
2023-08-26T01:34:50.499Z,2.08
2023-08-26T01:37:19.423Z,1.63
2023-08-26T01:39:48.112Z,1.58
2023-08-26T01:42:15.897Z,2.15
2023-08-26T01:44:43.139Z,1.73
2023-08-26T01:47:09.698Z,1.83
2023-08-26T01:49:36.318Z,1.52
2023-08-26T01:52:02.967Z,1.35
2023-08-26T01:54:29.515Z,1.58
2023-08-26T01:56:56.087Z,1.38
2023-08-26T01:59:22.651Z,1.70
2023-08-26T02:01:49.241Z,1.23
2023-08-26T02:04:15.848Z,1.38
2023-08-26T02:06:43.569Z,1.50
2023-08-26T02:09:10.149Z,1.10
2023-08-26T02:11:36.698Z,1.27
2023-08-26T02:14:03.325Z,1.30
2023-08-26T02:16:30.053Z,1.52
2023-08-26T02:18:56.693Z,1.00
2023-08-26T02:21:23.277Z,1.38
2023-08-26T02:23:49.847Z,1.35
2023-08-26T02:26:16.387Z,1.15
2023-08-26T02:28:43.205Z,1.40
2023-08-26T02:31:09.827Z,1.25
2023-08-26T02:33:36.396Z,1.20
2023-08-26T02:36:02.970Z,1.30
2023-08-26T02:38:32.589Z,1.40
2023-08-26T02:40:59.161Z,1.00
2023-08-26T02:43:25.712Z,0.95
2023-08-26T02:45:53.384Z,1.15
2023-08-26T02:48:21.250Z,1.08
2023-08-26T02:50:47.903Z,1.20
2023-08-26T02:53:14.964Z,1.55
2023-08-26T02:55:41.545Z,1.20
2023-08-26T02:58:08.062Z,1.20
2023-08-26T03:00:34.678Z,1.17
2023-08-26T03:03:01.360Z,1.25
2023-08-26T03:05:27.976Z,1.40
2023-08-26T03:07:54.736Z,1.45
2023-08-26T03:10:21.466Z,1.27
2023-08-26T03:12:48.012Z,1.40
2023-08-26T03:15:14.684Z,1.10
2023-08-26T03:17:41.258Z,1.20
2023-08-26T03:20:08.193Z,1.00
2023-08-26T03:22:34.870Z,1.20
2023-08-26T03:25:01.482Z,1.10
2023-08-26T03:27:28.046Z,1.10
2023-08-26T03:29:54.626Z,1.20
2023-08-26T03:32:21.225Z,1.30
2023-08-26T03:34:48.191Z,0.95
2023-08-26T03:37:14.959Z,1.05
2023-08-26T03:39:41.516Z,1.38
2023-08-26T03:42:08.076Z,1.02
2023-08-26T03:44:34.614Z,1.27
2023-08-26T03:47:01.159Z,1.30
2023-08-26T03:49:27.704Z,1.23
2023-08-26T03:51:54.246Z,1.00
2023-08-26T03:54:20.784Z,1.48
2023-08-26T03:56:47.336Z,1.10
2023-08-26T03:59:13.949Z,1.23
2023-08-26T04:01:40.515Z,1.05
2023-08-26T04:04:07.138Z,0.90
2023-08-26T04:06:34.683Z,0.95
2023-08-26T04:09:03.532Z,0.90
2023-08-26T04:11:30.169Z,1.23
2023-08-26T04:13:57.139Z,1.20
2023-08-26T04:16:23.743Z,0.90
2023-08-26T04:18:50.355Z,1.08
2023-08-26T04:21:16.950Z,0.90
2023-08-26T04:23:43.705Z,1.02
2023-08-26T04:26:10.310Z,1.20
2023-08-26T04:28:36.870Z,0.90
2023-08-26T04:31:03.564Z,1.13
2023-08-26T04:33:30.683Z,1.13
2023-08-26T04:35:57.435Z,1.10
2023-08-26T04:38:24.003Z,1.23
2023-08-26T04:40:50.594Z,1.10
2023-08-26T04:43:18.015Z,1.23
2023-08-26T04:45:45.039Z,0.80
2023-08-26T04:48:11.643Z,1.17
2023-08-26T04:50:38.338Z,0.80
2023-08-26T04:53:05.230Z,1.10
2023-08-26T04:55:34.208Z,1.02
2023-08-26T04:58:01.182Z,1.02
2023-08-26T05:00:28.073Z,1.00
2023-08-26T05:02:54.800Z,0.70
2023-08-26T05:05:21.446Z,1.10
2023-08-26T05:07:48.357Z,0.88
2023-08-26T05:10:14.905Z,1.02
2023-08-26T05:12:41.461Z,1.08
2023-08-26T05:15:08.313Z,0.90
2023-08-26T05:17:35.005Z,1.30
2023-08-26T05:20:01.770Z,1.00
2023-08-26T05:22:28.283Z,0.82
2023-08-26T05:24:54.906Z,0.75
2023-08-26T05:27:23.738Z,0.80
2023-08-26T05:29:50.758Z,0.90
2023-08-26T05:32:19.196Z,0.85
2023-08-26T05:34:45.949Z,0.98
2023-08-26T05:37:12.488Z,1.10
2023-08-26T05:39:39.032Z,0.95
2023-08-26T05:42:05.963Z,1.02
2023-08-26T05:44:32.554Z,2.22
2023-08-26T05:46:59.074Z,2.03
2023-08-26T05:49:25.598Z,2.67
2023-08-26T05:51:52.108Z,2.65
2023-08-26T05:54:18.657Z,2.75
2023-08-26T05:56:45.227Z,2.15
2023-08-26T05:59:11.774Z,3.47
2023-08-26T06:01:39.030Z,2.67
2023-08-26T06:04:06.280Z,2.30
2023-08-26T06:06:32.817Z,2.88
2023-08-26T06:08:59.410Z,2.80
2023-08-26T06:11:25.978Z,2.72
2023-08-26T06:13:52.636Z,2.90
2023-08-26T06:16:21.493Z,2.47
2023-08-26T06:18:48.903Z,2.67
2023-08-26T06:21:16.417Z,3.08
2023-08-26T06:23:43.010Z,3.15
2023-08-26T06:26:09.620Z,3.10
2023-08-26T06:28:36.317Z,3.38
2023-08-26T06:31:03.613Z,3.55
2023-08-26T06:33:30.244Z,3.10
2023-08-26T06:35:56.848Z,3.60
2023-08-26T06:38:23.739Z,3.28
2023-08-26T06:40:55.342Z,3.22
2023-08-26T06:43:22.250Z,2.95
2023-08-26T06:45:49.002Z,3.47
2023-08-26T06:48:16.673Z,3.22
2023-08-26T06:50:47.821Z,3.05
2023-08-26T06:53:15.795Z,2.97
2023-08-26T06:55:42.349Z,3.17
2023-08-26T06:58:08.908Z,2.45
2023-08-26T07:00:35.456Z,3.00
2023-08-26T07:03:02.112Z,2.50
2023-08-26T07:05:28.724Z,2.80
2023-08-26T07:07:55.586Z,2.10
2023-08-26T07:10:22.466Z,2.80
2023-08-26T07:12:48.983Z,2.83
2023-08-26T07:15:15.654Z,2.15
2023-08-26T07:17:43.102Z,2.63
2023-08-26T07:20:11.616Z,2.10
2023-08-26T07:22:38.301Z,2.28
2023-08-26T07:25:05.279Z,2.38
2023-08-26T07:27:31.866Z,2.13
2023-08-26T07:29:58.681Z,2.22
2023-08-26T07:32:25.265Z,1.58
2023-08-26T07:34:53.281Z,1.90
2023-08-26T07:37:19.908Z,1.52
2023-08-26T07:39:49.441Z,1.95
2023-08-26T07:42:16.034Z,1.83
2023-08-26T07:44:42.578Z,2.17
2023-08-26T07:47:09.263Z,2.25
2023-08-26T07:49:35.812Z,2.05
2023-08-26T07:52:02.499Z,2.15
2023-08-26T07:54:29.222Z,2.15
2023-08-26T07:56:56.184Z,2.10
2023-08-26T07:59:22.738Z,1.92
2023-08-26T08:01:49.299Z,2.10
2023-08-26T08:04:15.899Z,1.73
2023-08-26T08:06:42.450Z,2.00
2023-08-26T08:09:10.303Z,2.03
2023-08-26T08:11:37.135Z,1.63
2023-08-26T08:14:03.836Z,1.80
2023-08-26T08:16:30.394Z,1.85
2023-08-26T08:18:56.915Z,1.67
2023-08-26T08:21:23.464Z,2.03
2023-08-26T08:23:50.057Z,1.50
2023-08-26T08:26:17.320Z,1.50
2023-08-26T08:28:44.183Z,1.77
2023-08-26T08:31:10.763Z,1.25
2023-08-26T08:33:37.425Z,1.90
2023-08-26T08:36:04.870Z,1.42
2023-08-26T08:38:31.472Z,1.35
2023-08-26T08:40:59.794Z,1.33
2023-08-26T08:43:31.288Z,1.17
2023-08-26T08:45:58.431Z,1.42
2023-08-26T08:48:25.359Z,1.35
2023-08-26T08:50:54.472Z,1.15
2023-08-26T08:53:30.134Z,1.27
2023-08-26T08:55:57.184Z,1.35
2023-08-26T08:58:24.323Z,1.30
2023-08-26T09:00:52.612Z,1.10
2023-08-26T09:03:19.568Z,0.95
2023-08-26T09:05:46.402Z,1.10
2023-08-26T09:08:15.356Z,1.15
2023-08-26T09:10:42.032Z,0.90
2023-08-26T09:13:08.574Z,1.38
2023-08-26T09:15:35.147Z,1.10
2023-08-26T09:18:01.983Z,1.10
2023-08-26T09:20:30.309Z,1.15
2023-08-26T09:23:06.537Z,1.08
2023-08-26T09:25:33.511Z,0.90
2023-08-26T09:28:00.529Z,1.27
2023-08-26T09:30:27.233Z,2.25
2023-08-26T09:32:54.752Z,3.03
2023-08-26T09:38:09.307Z,2.80
2023-08-26T09:40:35.873Z,2.53
2023-08-26T09:43:05.494Z,2.85
2023-08-26T09:45:36.777Z,2.63
2023-08-26T09:48:03.531Z,2.25
2023-08-26T09:50:34.579Z,2.22
2023-08-26T09:53:01.298Z,2.40
2023-08-26T09:55:28.594Z,1.80
2023-08-26T09:57:55.782Z,1.73
2023-08-26T10:00:22.641Z,1.55
2023-08-26T10:02:50.969Z,1.75
2023-08-26T10:05:20.012Z,1.35
2023-08-26T10:07:51.803Z,1.40
2023-08-26T10:10:30.093Z,1.60
2023-08-26T10:13:20.716Z,1.30
2023-08-26T10:15:51.629Z,1.17
2023-08-26T10:18:28.932Z,1.42
2023-08-26T10:20:56.911Z,1.30
2023-08-26T10:23:26.058Z,1.08
2023-08-26T10:25:53.492Z,1.08
2023-08-26T10:28:21.397Z,1.20
2023-08-26T10:30:48.258Z,1.00
2023-08-26T10:33:14.848Z,1.20
2023-08-26T10:35:41.675Z,1.17
2023-08-26T10:38:10.455Z,7.78
2023-08-26T10:40:37.057Z,10.25
2023-08-26T10:43:06.258Z,9.50
2023-08-26T10:45:33.139Z,10.38
2023-08-26T10:48:01.506Z,11.55
2023-08-26T10:50:29.415Z,8.50
2023-08-26T10:53:00.293Z,7.28
2023-08-26T10:55:29.255Z,5.80
2023-08-26T10:58:07.734Z,5.60
2023-08-26T11:00:35.040Z,4.28
2023-08-26T11:03:04.952Z,3.90
2023-08-26T11:05:31.790Z,3.40
2023-08-26T11:07:58.602Z,2.83
2023-08-26T11:10:34.027Z,2.47
2023-08-26T11:13:01.321Z,2.20
2023-08-26T11:15:48.096Z,2.00
2023-08-26T11:18:14.903Z,1.65
2023-08-26T11:20:41.483Z,1.40
2023-08-26T11:23:08.177Z,2.13
2023-08-26T11:25:35.151Z,1.45
2023-08-26T11:28:05.838Z,1.30
2023-08-26T11:30:43.786Z,1.27
2023-08-26T11:33:16.433Z,1.50
2023-08-26T11:35:51.986Z,1.73
2023-08-26T11:38:25.880Z,1.98
2023-08-26T11:40:52.401Z,1.55
2023-08-26T11:43:19.162Z,1.50
2023-08-26T11:45:51.254Z,1.55
2023-08-26T11:48:17.979Z,1.20
2023-08-26T11:50:47.252Z,1.38
2023-08-26T11:53:13.825Z,1.10
2023-08-26T11:55:40.653Z,1.10
2023-08-26T11:58:07.429Z,0.88
2023-08-26T12:00:34.526Z,1.10
2023-08-26T12:03:06.461Z,1.05
2023-08-26T12:05:47.354Z,0.90
2023-08-26T12:08:18.572Z,0.82
2023-08-26T12:10:53.155Z,1.00
2023-08-26T12:13:20.562Z,7.75
2023-08-26T12:15:47.913Z,4.50
2023-08-26T12:18:15.686Z,3.58
2023-08-26T12:20:47.809Z,4.53
2023-08-26T12:23:18.778Z,8.27
2023-08-26T12:25:46.400Z,8.80
2023-08-26T12:28:14.506Z,11.02
2023-08-26T12:30:43.528Z,18.88
2023-08-26T12:33:21.552Z,15.23
2023-08-26T12:35:49.793Z,15.05
2023-08-26T12:38:16.369Z,14.55
2023-08-26T12:40:49.554Z,10.63
2023-08-26T12:43:16.677Z,9.98
2023-08-26T12:45:44.038Z,9.82
2023-08-26T12:48:11.279Z,9.57
2023-08-26T12:50:38.089Z,8.35
2023-08-26T12:53:05.545Z,7.80
2023-08-26T12:55:32.791Z,8.75
2023-08-26T12:57:59.649Z,8.45
2023-08-26T13:00:26.612Z,8.85
2023-08-26T13:02:53.320Z,7.75
2023-08-26T13:05:20.302Z,6.90
2023-08-26T13:07:46.892Z,6.90
2023-08-26T13:10:13.589Z,7.05
2023-08-26T13:12:44.137Z,6.72
2023-08-26T13:15:13.348Z,5.93
2023-08-26T13:17:40.291Z,6.47
2023-08-26T13:20:10.589Z,6.28
2023-08-26T13:22:37.150Z,5.35
2023-08-26T13:25:03.861Z,5.05
2023-08-26T13:27:30.923Z,5.50
2023-08-26T13:29:57.484Z,4.00
2023-08-26T13:32:24.151Z,4.95
2023-08-26T13:34:50.770Z,4.03
2023-08-26T13:37:17.341Z,4.22
2023-08-26T13:39:44.636Z,3.42
2023-08-26T13:42:11.265Z,2.95
2023-08-26T13:44:37.867Z,3.42
2023-08-26T13:47:04.549Z,2.90
2023-08-26T13:49:31.396Z,3.50
2023-08-26T13:51:58.061Z,3.08
2023-08-26T13:54:25.026Z,3.55
2023-08-26T13:56:51.614Z,2.70
2023-08-26T13:59:18.175Z,3.58
2023-08-26T14:01:44.774Z,2.85
2023-08-26T14:04:11.296Z,4.40
2023-08-26T14:06:37.873Z,3.58
2023-08-26T14:09:04.655Z,4.05
2023-08-26T14:11:31.315Z,4.93
2023-08-26T14:13:57.884Z,3.40
2023-08-26T14:16:24.431Z,4.53
2023-08-26T14:18:50.986Z,3.90
2023-08-26T14:21:17.643Z,5.47
2023-08-26T14:23:46.245Z,4.80
2023-08-26T14:26:14.076Z,4.35
2023-08-26T14:28:40.715Z,4.30
2023-08-26T14:31:07.292Z,4.07
2023-08-26T14:33:34.389Z,4.60
2023-08-26T14:36:01.978Z,4.13
2023-08-26T14:38:28.538Z,3.67
2023-08-26T14:40:55.122Z,3.20
2023-08-26T14:43:21.905Z,3.92
2023-08-26T14:45:49.803Z,4.20
2023-08-26T14:48:16.992Z,4.20
2023-08-26T14:50:44.828Z,4.00
2023-08-26T14:53:11.429Z,3.33
2023-08-26T14:55:44.923Z,4.10
2023-08-26T15:00:38.819Z,4.85
2023-08-26T15:03:06.762Z,9.93
2023-08-26T15:05:33.493Z,21.92
2023-08-26T15:08:00.238Z,14.93
2023-08-26T15:10:27.145Z,14.77
2023-08-26T15:12:53.765Z,13.38
2023-08-26T15:15:20.380Z,14.80
2023-08-26T15:17:47.020Z,11.50
2023-08-26T15:20:13.664Z,12.45
2023-08-26T15:22:40.271Z,12.77
2023-08-26T15:25:07.529Z,14.05
2023-08-26T15:27:34.164Z,13.10
2023-08-26T15:30:00.710Z,11.88
2023-08-26T15:32:27.309Z,7.60
2023-08-26T15:34:53.980Z,9.55
2023-08-26T15:37:20.624Z,10.40
2023-08-26T15:39:47.271Z,11.10
2023-08-26T15:42:13.911Z,8.50
2023-08-26T15:44:40.879Z,9.40
2023-08-26T15:47:07.640Z,7.22
2023-08-26T15:49:34.442Z,8.40
2023-08-26T15:52:01.142Z,8.18
2023-08-26T15:54:27.779Z,9.10
2023-08-26T15:56:54.398Z,7.85
2023-08-26T15:59:20.977Z,6.78
2023-08-26T16:01:47.531Z,7.82
2023-08-26T16:04:16.303Z,7.22
2023-08-26T16:06:43.040Z,5.57
2023-08-26T16:09:09.633Z,4.80
2023-08-26T16:11:36.252Z,6.50
2023-08-26T16:14:02.825Z,6.43
2023-08-26T16:16:29.814Z,7.13
2023-08-26T16:18:57.595Z,6.90
2023-08-26T16:21:24.390Z,6.68
2023-08-26T16:23:51.292Z,5.78
2023-08-26T16:26:18.277Z,5.40
2023-08-26T16:28:45.867Z,4.50
2023-08-26T16:31:12.932Z,4.57
2023-08-26T16:33:40.001Z,2.88
2023-08-26T16:36:07.840Z,3.58
2023-08-26T16:38:35.181Z,3.28
2023-08-26T16:41:02.779Z,3.20
2023-08-26T16:43:31.301Z,3.15
2023-08-26T16:45:58.204Z,2.83
2023-08-26T16:48:24.861Z,2.28
2023-08-26T16:50:52.278Z,2.85
2023-08-26T16:53:20.388Z,2.95
2023-08-26T16:55:46.979Z,2.67
2023-08-26T16:58:13.575Z,2.38
2023-08-26T17:00:40.576Z,2.63
2023-08-26T17:03:07.633Z,2.08
2023-08-26T17:05:34.427Z,3.47
2023-08-26T17:08:01.640Z,3.28
2023-08-26T17:10:29.701Z,1.80
2023-08-26T17:12:56.471Z,2.30
2023-08-26T17:15:23.307Z,2.30
2023-08-26T17:17:50.048Z,2.38
2023-08-26T17:20:16.662Z,2.58
2023-08-26T17:22:43.252Z,1.98
2023-08-26T17:25:09.814Z,1.70
2023-08-26T17:27:37.902Z,1.55
2023-08-26T17:30:05.426Z,1.83
2023-08-26T17:32:32.055Z,1.30
2023-08-26T17:34:58.684Z,1.40
2023-08-26T17:37:25.362Z,1.27
2023-08-26T17:39:51.934Z,1.40
2023-08-26T17:42:18.491Z,1.00
2023-08-26T17:44:45.070Z,1.27
2023-08-26T17:47:11.604Z,1.42
2023-08-26T17:49:38.331Z,1.02
2023-08-26T17:52:05.480Z,1.08
2023-08-26T17:54:32.066Z,3.25
2023-08-26T17:56:58.728Z,3.22
2023-08-26T17:59:25.342Z,2.50
2023-08-26T18:01:51.945Z,3.03
2023-08-26T18:04:18.520Z,3.00
2023-08-26T18:06:46.160Z,2.58
2023-08-26T18:09:13.300Z,2.75
2023-08-26T18:11:39.986Z,2.83
2023-08-26T18:14:06.583Z,2.45
2023-08-26T18:16:33.256Z,2.60
2023-08-26T18:18:59.903Z,2.67
2023-08-26T18:21:26.456Z,3.17
2023-08-26T18:23:53.393Z,2.40
2023-08-26T18:26:19.918Z,2.30
2023-08-26T18:28:46.506Z,1.63
2023-08-26T18:31:13.146Z,1.80
2023-08-26T18:33:39.799Z,1.95
2023-08-26T18:36:06.359Z,1.75
2023-08-26T18:38:32.951Z,1.80
2023-08-26T18:41:00.800Z,2.15
2023-08-26T18:43:27.786Z,1.85
2023-08-26T18:45:55.479Z,1.67
2023-08-26T18:48:22.045Z,2.55
2023-08-26T18:51:06.946Z,1.50
2023-08-26T18:53:33.973Z,2.00
2023-08-26T18:56:01.106Z,2.28
2023-08-26T18:58:27.720Z,2.08
2023-08-26T19:00:55.612Z,2.63
2023-08-26T19:03:23.038Z,2.40
2023-08-26T19:05:50.834Z,2.10
2023-08-26T19:08:18.127Z,2.50
2023-08-26T19:10:46.478Z,2.70
2023-08-26T19:13:13.721Z,4.93
2023-08-26T19:15:41.252Z,13.00
2023-08-26T19:18:08.449Z,18.30
2023-08-26T19:20:39.020Z,16.50
2023-08-26T19:23:06.626Z,15.25
2023-08-26T19:25:34.631Z,13.32
2023-08-26T19:28:01.455Z,14.07
2023-08-26T19:30:28.064Z,12.43
2023-08-26T19:32:57.845Z,11.55
2023-08-26T19:35:25.231Z,11.70
2023-08-26T19:37:51.843Z,10.38
2023-08-26T19:40:18.628Z,10.43
2023-08-26T19:42:45.235Z,10.48
2023-08-26T19:45:12.235Z,9.35
2023-08-26T19:47:39.592Z,8.93
2023-08-26T19:50:06.907Z,8.95
2023-08-26T19:52:34.324Z,8.73
2023-08-26T19:55:02.035Z,8.30
2023-08-26T19:57:28.658Z,8.50
2023-08-26T19:59:56.303Z,8.05
2023-08-26T20:02:22.996Z,7.50
2023-08-26T20:04:50.651Z,7.75
2023-08-26T20:07:17.905Z,7.47
2023-08-26T20:09:44.635Z,6.82
2023-08-26T20:12:11.337Z,6.53
2023-08-26T20:14:39.263Z,7.18
2023-08-26T20:17:05.959Z,7.25
2023-08-26T20:19:35.078Z,7.07
2023-08-26T20:22:03.842Z,6.82
2023-08-26T20:24:31.169Z,6.38
2023-08-26T20:26:58.067Z,6.22
2023-08-26T20:29:24.797Z,5.97
2023-08-26T20:31:52.167Z,6.35
2023-08-26T20:34:19.182Z,5.55
2023-08-26T20:36:48.664Z,5.57
2023-08-26T20:39:16.045Z,6.75
2023-08-26T20:41:42.771Z,4.85
2023-08-26T20:44:09.344Z,4.75
2023-08-26T20:46:36.289Z,5.18
2023-08-26T20:49:03.921Z,5.43
2023-08-26T20:51:31.515Z,5.13
2023-08-26T20:53:58.109Z,4.97
2023-08-26T20:56:26.119Z,4.97
2023-08-26T20:58:56.637Z,4.85
2023-08-26T21:01:23.304Z,4.80
2023-08-26T21:03:49.867Z,5.28
2023-08-26T21:06:16.488Z,4.60
2023-08-26T21:08:43.426Z,4.43
2023-08-26T21:11:10.047Z,4.40
2023-08-26T21:13:38.516Z,4.30
2023-08-26T21:16:08.387Z,4.47
2023-08-26T21:18:35.660Z,4.25
2023-08-26T21:21:02.567Z,3.90
2023-08-26T21:23:29.655Z,3.90
2023-08-26T21:25:56.773Z,4.30
2023-08-26T21:28:27.537Z,4.28
2023-08-26T21:30:55.030Z,4.13
2023-08-26T21:33:22.964Z,4.30
2023-08-26T21:35:50.945Z,3.80
2023-08-26T21:38:17.552Z,3.90
2023-08-26T21:40:44.412Z,3.90
2023-08-26T21:43:14.260Z,3.45
2023-08-26T21:45:41.091Z,3.85
2023-08-26T21:48:08.605Z,3.20
2023-08-26T21:50:42.315Z,4.07
2023-08-26T21:53:09.235Z,3.20
2023-08-26T21:55:35.937Z,3.38
2023-08-26T21:58:07.200Z,3.10
2023-08-26T22:00:38.083Z,3.47
2023-08-26T22:03:05.005Z,3.10
2023-08-26T22:05:33.663Z,3.25
2023-08-26T22:08:00.755Z,2.95
2023-08-26T22:10:27.836Z,2.92
2023-08-26T22:12:55.550Z,2.67
2023-08-26T22:15:23.349Z,2.97
2023-08-26T22:17:50.747Z,2.63
2023-08-26T22:20:17.640Z,2.88
2023-08-26T22:22:45.559Z,2.30
2023-08-26T22:25:13.008Z,2.30
2023-08-26T22:27:41.381Z,2.80
2023-08-26T22:30:09.571Z,3.15
2023-08-26T22:32:37.124Z,2.20
2023-08-26T22:35:04.737Z,2.40
2023-08-26T22:37:33.872Z,2.05
2023-08-26T22:40:01.942Z,2.17
2023-08-26T22:42:31.136Z,2.72
2023-08-26T22:44:58.205Z,2.20
2023-08-26T22:47:28.801Z,2.17
2023-08-26T22:50:05.702Z,2.28
2023-08-26T22:52:33.281Z,2.38
2023-08-26T22:55:00.297Z,2.20
2023-08-26T22:57:27.165Z,2.47
2023-08-26T22:59:53.753Z,2.25
2023-08-26T23:02:21.553Z,2.55
2023-08-26T23:04:48.771Z,2.13
2023-08-26T23:07:15.465Z,2.10
2023-08-26T23:09:42.024Z,2.40
2023-08-26T23:12:08.885Z,2.15
2023-08-26T23:14:38.054Z,1.98
2023-08-26T23:17:05.029Z,2.22
2023-08-26T23:19:31.685Z,2.00
2023-08-26T23:21:59.573Z,2.25
2023-08-26T23:24:26.247Z,2.17
2023-08-26T23:26:52.797Z,2.13
2023-08-26T23:29:19.398Z,2.20
2023-08-26T23:31:46.985Z,2.10
2023-08-26T23:34:18.799Z,2.20
2023-08-26T23:36:47.352Z,2.00
2023-08-26T23:39:14.664Z,1.98
2023-08-26T23:41:41.909Z,2.00
2023-08-26T23:44:08.653Z,1.90
2023-08-26T23:46:35.609Z,2.20
2023-08-26T23:49:03.370Z,2.00
2023-08-26T23:51:29.971Z,1.85
2023-08-26T23:53:56.527Z,2.17
2023-08-26T23:56:23.054Z,1.65
2023-08-26T23:58:49.623Z,1.90
